createdAt,value
2018-03-11T15:20:11.314Z,1.60
2018-03-11T15:22:38.823Z,2.53
2018-03-11T15:25:07.120Z,1.50
2018-03-11T15:27:34.856Z,1.37
2018-03-11T15:30:03.187Z,1.50
2018-03-11T15:32:30.731Z,1.80
2018-03-11T15:34:58.227Z,1.70
2018-03-11T15:37:26.052Z,1.77
2018-03-11T15:39:54.436Z,1.60
2018-03-11T15:42:22.072Z,1.90
2018-03-11T15:44:48.651Z,1.70
2018-03-11T15:47:15.323Z,1.70
2018-03-11T15:49:42.452Z,1.80
2018-03-11T15:52:08.951Z,1.43
2018-03-11T15:54:35.465Z,1.80
2018-03-11T15:57:01.923Z,1.63
2018-03-11T15:59:29.169Z,1.70
2018-03-11T16:01:55.623Z,1.67
2018-03-11T16:04:22.353Z,1.70
2018-03-11T16:06:48.626Z,1.70
2018-03-11T16:09:14.903Z,1.87
2018-03-11T16:11:41.210Z,2.20
2018-03-11T16:14:08.263Z,1.70
2018-03-11T16:16:34.707Z,2.00
2018-03-11T16:19:00.998Z,2.13
2018-03-11T16:21:28.108Z,2.27
2018-03-11T16:23:54.404Z,2.30
2018-03-11T16:26:20.771Z,2.40
2018-03-11T16:28:47.184Z,2.30
2018-03-11T16:31:13.519Z,2.20
2018-03-11T16:33:40.052Z,2.20
2018-03-11T16:36:06.574Z,1.83
2018-03-11T16:38:32.906Z,2.20
2018-03-11T16:40:59.360Z,1.90
2018-03-11T16:43:25.703Z,2.10
2018-03-11T16:47:34.360Z,2.23
2018-03-11T16:50:08.315Z,2.93
2018-03-11T16:52:40.795Z,2.80
2018-03-11T16:56:08.822Z,2.90
2018-03-11T16:58:42.173Z,2.90
2018-03-11T17:01:14.817Z,2.60
2018-03-11T17:03:48.556Z,2.73
2018-03-11T17:06:21.551Z,2.60
2018-03-11T17:08:54.138Z,3.63
2018-03-11T17:11:26.676Z,3.17
2018-03-11T17:13:59.886Z,4.37
2018-03-11T17:16:33.397Z,4.73
2018-03-11T17:19:05.916Z,3.50
2018-03-11T17:21:38.981Z,3.17
2018-03-11T17:24:11.702Z,3.30
2018-03-11T17:26:44.214Z,3.10
2018-03-11T17:29:16.936Z,2.87
2018-03-11T17:31:50.958Z,2.90
2018-03-11T17:34:23.513Z,2.77
2018-03-11T17:36:57.094Z,3.40
2018-03-11T17:39:29.762Z,3.20
2018-03-11T17:42:02.300Z,3.00
2018-03-11T17:44:34.962Z,2.87
2018-03-11T17:47:07.519Z,3.00
2018-03-11T17:49:40.038Z,2.83
2018-03-11T17:52:12.628Z,2.90
2018-03-11T17:54:46.174Z,3.00
2018-03-11T17:57:12.753Z,2.77
2018-03-11T17:59:39.117Z,3.07
2018-03-11T18:02:05.497Z,3.20
2018-03-11T18:04:33.143Z,3.20
2018-03-11T18:06:59.715Z,3.53
2018-03-11T18:09:26.332Z,3.27
2018-03-11T18:11:53.407Z,3.40
2018-03-11T18:14:20.386Z,3.10
2018-03-11T18:16:46.744Z,3.00
2018-03-11T18:19:13.356Z,3.13
2018-03-11T18:21:39.680Z,3.00
2018-03-11T18:24:06.019Z,3.60
2018-03-11T18:26:32.371Z,3.80
2018-03-11T18:28:58.693Z,3.63
2018-03-11T18:31:32.154Z,3.10
2018-03-11T18:33:58.572Z,3.03
2018-03-11T18:36:25.804Z,3.60
2018-03-11T18:38:52.897Z,3.40
2018-03-11T18:41:19.404Z,3.00
2018-03-11T18:43:45.837Z,3.20
2018-03-11T18:46:12.241Z,3.23
2018-03-11T18:48:39.358Z,3.13
2018-03-11T18:51:05.884Z,3.13
2018-03-11T18:53:32.362Z,3.70
2018-03-11T18:55:59.132Z,3.83
2018-03-11T19:00:25.489Z,4.87
2018-03-11T19:02:52.837Z,5.93
2018-03-11T19:05:19.176Z,7.00
2018-03-11T19:07:46.218Z,7.23
2018-03-11T19:10:12.591Z,7.17
2018-03-11T19:12:40.014Z,7.40
2018-03-11T19:17:38.729Z,6.80
2018-03-11T19:20:05.241Z,6.60
2018-03-11T19:22:31.766Z,5.77
2018-03-11T19:24:58.313Z,6.23
2018-03-11T19:27:25.353Z,6.87
2018-03-11T19:29:52.197Z,6.13
2018-03-11T19:32:29.745Z,8.27
2018-03-11T19:34:57.091Z,7.33
2018-03-11T19:37:23.829Z,6.73
2018-03-11T19:39:51.761Z,7.20
2018-03-11T19:42:19.380Z,7.30
2018-03-11T19:44:46.654Z,8.57
2018-03-11T19:47:13.353Z,8.57
2018-03-11T19:49:41.692Z,8.83
2018-03-11T19:52:08.832Z,9.90
2018-03-11T19:54:35.470Z,9.43
2018-03-11T19:57:01.920Z,8.63
2018-03-11T19:59:30.198Z,9.13
2018-03-11T20:01:57.333Z,10.23
2018-03-11T20:04:23.790Z,10.07
2018-03-11T20:06:50.575Z,12.07
2018-03-11T20:09:17.282Z,14.77
2018-03-11T20:11:50.813Z,13.23
2018-03-11T20:14:23.609Z,13.10
2018-03-11T20:16:56.822Z,12.50
2018-03-11T20:19:30.322Z,12.63
2018-03-11T20:22:03.412Z,14.03
2018-03-11T20:24:36.333Z,14.87
2018-03-11T20:27:10.097Z,14.47
2018-03-11T20:29:42.996Z,14.73
2018-03-11T20:32:16.700Z,14.77
2018-03-11T20:34:50.196Z,14.30
2018-03-11T20:37:23.077Z,13.53
2018-03-11T20:39:55.779Z,13.47
2018-03-11T20:42:28.684Z,15.13
2018-03-11T20:45:01.333Z,13.97
2018-03-11T20:47:34.228Z,13.17
2018-03-11T20:50:07.149Z,13.47
2018-03-11T20:52:40.473Z,20.13
2018-03-11T20:55:13.384Z,19.97
2018-03-11T20:57:46.954Z,22.90
2018-03-11T21:00:19.859Z,17.53
2018-03-11T21:02:52.589Z,19.77
2018-03-11T21:05:25.014Z,18.50
2018-03-11T21:07:58.023Z,16.93
2018-03-11T21:10:31.291Z,17.17
2018-03-11T21:13:05.188Z,16.03
2018-03-11T21:15:39.203Z,17.93
2018-03-11T21:18:12.191Z,16.67
2018-03-11T21:20:44.918Z,16.33
2018-03-11T21:23:17.543Z,15.97
2018-03-11T21:25:50.058Z,15.23
2018-03-11T21:28:23.683Z,16.07
2018-03-11T21:30:56.926Z,15.47
2018-03-11T21:33:29.798Z,14.57
2018-03-11T21:36:03.218Z,13.93
2018-03-11T21:38:35.937Z,14.77
2018-03-11T21:41:12.684Z,14.53
2018-03-11T21:43:49.524Z,14.17
2018-03-11T21:46:25.535Z,13.83
2018-03-11T21:49:01.408Z,13.33
2018-03-11T21:51:35.453Z,13.03
2018-03-11T21:54:11.875Z,13.00
2018-03-11T21:56:44.942Z,13.10
2018-03-11T21:59:18.685Z,12.90
2018-03-11T22:01:51.334Z,12.73
2018-03-11T22:04:24.065Z,11.57
2018-03-11T22:06:56.657Z,11.27
2018-03-11T22:09:29.372Z,11.10
2018-03-11T22:12:02.108Z,10.50
2018-03-11T22:14:35.644Z,10.87
2018-03-11T22:17:08.798Z,10.53
2018-03-11T22:19:41.581Z,9.23
2018-03-11T22:22:14.304Z,9.43
2018-03-11T22:24:46.904Z,8.83
2018-03-11T22:27:20.458Z,9.10
2018-03-11T22:29:53.190Z,8.80
2018-03-11T22:32:25.937Z,8.30
2018-03-11T22:34:58.837Z,8.83
2018-03-11T22:37:31.417Z,8.47
2018-03-11T22:40:04.865Z,7.70
2018-03-11T22:42:38.207Z,8.00
2018-03-11T22:45:11.856Z,7.40
2018-03-11T22:47:45.149Z,8.47
2018-03-11T22:50:18.094Z,7.77
2018-03-11T22:52:50.672Z,7.60
2018-03-11T22:55:23.554Z,7.80
2018-03-11T22:57:58.651Z,7.93
2018-03-11T23:00:31.517Z,8.57
2018-03-11T23:03:04.084Z,8.30
2018-03-11T23:05:37.279Z,8.13
2018-03-11T23:08:10.370Z,7.97
2018-03-11T23:10:43.274Z,8.20
2018-03-11T23:13:16.100Z,7.53
2018-03-11T23:15:49.681Z,7.60
2018-03-11T23:18:22.416Z,7.80
2018-03-11T23:20:55.754Z,8.43
2018-03-11T23:23:28.499Z,8.47
2018-03-11T23:26:01.148Z,8.67
2018-03-11T23:28:33.859Z,8.17
2018-03-11T23:31:06.633Z,8.33
2018-03-11T23:33:39.387Z,8.70
2018-03-11T23:36:12.298Z,9.47
2018-03-11T23:38:44.979Z,8.37
2018-03-11T23:41:18.177Z,8.90
2018-03-11T23:43:50.698Z,11.00
2018-03-11T23:46:23.566Z,10.67
2018-03-11T23:48:56.083Z,11.30
2018-03-11T23:51:29.302Z,11.70
2018-03-11T23:54:01.749Z,11.37
2018-03-11T23:56:34.759Z,11.23
2018-03-11T23:59:07.535Z,10.57
